Observation data for Northfield on 05/25/2019      Previous  Date  Next       Current Mesonet Observations  Soil Data  Daily Summary Page  Observations in Plain Language
KNOR 250500Z 30004KT 17/15 A2997 RMK A01 T01730153  RH  092%=      5-min Rain = 0
KNOR 250505Z 31005KT 17/15 A2997 RMK A01 T01720154  RH  093%=      5-min Rain = 0
KNOR 250510Z 29003KT 17/15 A2997 RMK A01 T01720153  RH  093%=      5-min Rain = 0
KNOR 250515Z 24004KT 17/15 A2998 RMK A01 T01720154  RH  093%=      5-min Rain = 0
KNOR 250520Z 22005KT 17/15 A2998 RMK A01 T01730154  RH  093%=      5-min Rain = 0
KNOR 250525Z 22006KT 17/15 A2997 RMK A01 T01720153  RH  093%=      5-min Rain = 0
KNOR 250530Z 20006KT 17/15 A2997 RMK A01 T01720153  RH  093%=      5-min Rain = 0
KNOR 250535Z 20005KT 17/15 A2997 RMK A01 T01700152  RH  093%=      5-min Rain = 0
KNOR 250540Z 20006KT 17/15 A2997 RMK A01 T01690152  RH  094%=      5-min Rain = 0
KNOR 250545Z 20005KT 17/15 A2997 RMK A01 T01680152  RH  094%=      5-min Rain = 0
KNOR 250550Z 19006KT 17/15 A2996 RMK A01 T01670151  RH  094%=      5-min Rain = 0
KNOR 250555Z 18006KT 17/15 A2996 RMK A01 T01670151  RH  095%=      5-min Rain = 0
KNOR 250600Z 17007KT 17/15 A2996 RMK A01 T01680152  RH  095%=      5-min Rain = 0
KNOR 250605Z 16008KT 17/15 A2995 RMK A01 T01680152  RH  094%=      5-min Rain = 0
KNOR 250610Z 16009KT 17/15 A2995 RMK A01 T01690152  RH  094%=      5-min Rain = 0
KNOR 250615Z 15010KT 17/15 A2995 RMK A01 T01700151  RH  093%=      5-min Rain = 0
KNOR 250620Z 15010KT 17/15 A2995 RMK A01 T01710152  RH  093%=      5-min Rain = 0
KNOR 250625Z 15010KT 17/15 A2995 RMK A01 T01720153  RH  092%=      5-min Rain = 0
KNOR 250630Z 15010KT 17/15 A2995 RMK A01 T01710152  RH  093%=      5-min Rain = 0
KNOR 250635Z 15009KT 17/15 A2995 RMK A01 T01700152  RH  093%=      5-min Rain = 0
KNOR 250640Z 15010KT 17/15 A2995 RMK A01 T01690153  RH  094%=      5-min Rain = 0
KNOR 250645Z 15010G15KT 17/15 A2995 RMK A01 T01700154  RH  095%=      5-min Rain = 0
KNOR 250650Z 15009KT 17/16 A2995 RMK A01 T01700155  RH  095%=      5-min Rain = 0
KNOR 250655Z 15009KT 17/15 A2995 RMK A01 T01690154  RH  095%=      5-min Rain = 0
KNOR 250700Z 14009KT 17/16 A2994 RMK A01 T01690155  RH  096%=      5-min Rain = 0
KNOR 250705Z 14009KT 17/16 A2994 RMK A01 T01700156  RH  096%=      5-min Rain = 0
KNOR 250710Z 14009KT 17/16 A2994 RMK A01 T01700157  RH  096%=      5-min Rain = 0
KNOR 250715Z 14009KT 17/16 A2994 RMK A01 T01700157  RH  096%=      5-min Rain = 0
KNOR 250720Z 14009KT 17/16 A2994 RMK A01 T01710157  RH  096%=      5-min Rain = 0
KNOR 250725Z 13010KT 17/16 A2994 RMK A01 T01710157  RH  096%=      5-min Rain = 0
KNOR 250730Z 13010KT 17/16 A2994 RMK A01 T01720158  RH  096%=      5-min Rain = 0
KNOR 250735Z 13010KT 17/16 A2994 RMK A01 T01720158  RH  096%=      5-min Rain = 0
KNOR 250740Z 13010KT 17/16 A2994 RMK A01 T01720158  RH  096%=      5-min Rain = 0
KNOR 250745Z 14011KT 17/16 A2994 RMK A01 T01720158  RH  096%=      5-min Rain = 0
KNOR 250750Z 14011KT 17/16 A2994 RMK A01 T01720158  RH  096%=      5-min Rain = 0
KNOR 250755Z 14011KT 17/16 A2994 RMK A01 T01720158  RH  096%=      5-min Rain = 0
KNOR 250800Z 13010KT 17/16 A2994 RMK A01 T01720158  RH  096%=      5-min Rain = 0
KNOR 250805Z 13009KT 17/16 A2994 RMK A01 T01710158  RH  096%=      5-min Rain = 0
KNOR 250810Z 13010KT 17/16 A2994 RMK A01 T01710157  RH  096%=      5-min Rain = 0
KNOR 250815Z 13011KT 17/16 A2993 RMK A01 T01710158  RH  096%=      5-min Rain = 0
KNOR 250820Z 13011KT 17/16 A2993 RMK A01 T01710158  RH  096%=      5-min Rain = 0
KNOR 250825Z 13012KT 17/16 A2992 RMK A01 T01710158  RH  097%=      5-min Rain = 0
KNOR 250830Z 13012KT 17/16 A2992 RMK A01 T01720159  RH  097%=      5-min Rain = 0
KNOR 250835Z 13011G17KT 17/16 A2992 RMK A01 T01720160  RH  097%=      5-min Rain = 0
KNOR 250840Z 13013KT 17/16 A2992 RMK A01 T01730161  RH  097%=      5-min Rain = 0
KNOR 250845Z 14012KT 17/16 A2992 RMK A01 T01730161  RH  097%=      5-min Rain = 0
KNOR 250850Z 14011G16KT 17/16 A2992 RMK A01 T01730161  RH  097%=      5-min Rain = 0
KNOR 250855Z 14011KT 17/16 A2993 RMK A01 T01730161  RH  097%=      5-min Rain = 0
KNOR 250900Z 14011KT 17/16 A2992 RMK A01 T01730161  RH  097%=      5-min Rain = 0
KNOR 250905Z 15011G16KT 17/16 A2993 RMK A01 T01730161  RH  097%=      5-min Rain = 0
KNOR 250910Z 14010KT 17/16 A2992 RMK A01 T01730161  RH  098%=      5-min Rain = 0
KNOR 250915Z 14010KT 17/16 A2992 RMK A01 T01730161  RH  098%=      5-min Rain = 0
KNOR 250920Z 14010KT 17/16 A2992 RMK A01 T01730162  RH  098%=      5-min Rain = 0
KNOR 250925Z 13011KT 17/16 A2992 RMK A01 T01730162  RH  098%=      5-min Rain = 0
KNOR 250930Z 13009KT 17/16 A2992 RMK A01 T01730162  RH  098%=      5-min Rain = 0
KNOR 250935Z 14009KT 17/16 A2992 RMK A01 T01730162  RH  098%=      5-min Rain = 0
KNOR 250940Z 14008KT 17/16 A2992 RMK A01 T01730163  RH  098%=      5-min Rain = 0
KNOR 250945Z 14008KT 17/16 A2992 RMK A01 T01740163  RH  098%=      5-min Rain = 0
KNOR 250950Z 14008KT 17/16 A2993 RMK A01 T01740164  RH  098%=      5-min Rain = 0
KNOR 250955Z 13008KT 18/16 A2993 RMK A01 T01750164  RH  098%=      5-min Rain = 0
KNOR 251000Z 13008KT 18/17 A2992 RMK A01 T01750165  RH  098%=      5-min Rain = 0
KNOR 251005Z 13007KT 18/17 A2993 RMK A01 T01750165  RH  098%=      5-min Rain = 0
KNOR 251010Z 13007KT 18/17 A2993 RMK A01 T01760166  RH  098%=      5-min Rain = 0
KNOR 251015Z 13007KT 18/17 A2993 RMK A01 T01770167  RH  098%=      5-min Rain = 0
KNOR 251020Z 14006KT 18/17 A2994 RMK A01 T01770167  RH  098%=      5-min Rain = 0
KNOR 251025Z 15005KT 18/17 A2994 RMK A01 T01780168  RH  098%=      5-min Rain = 0
KNOR 251030Z 14005KT 18/17 A2994 RMK A01 T01790169  RH  098%=      5-min Rain = 0
KNOR 251035Z 14005KT 18/17 A2994 RMK A01 T01790169  RH  098%=      5-min Rain = 0
KNOR 251040Z 14006KT 18/17 A2994 RMK A01 T01810171  RH  098%=      5-min Rain = 0
KNOR 251045Z 14006KT 18/17 A2994 RMK A01 T01820171  RH  098%=      5-min Rain = 0
KNOR 251050Z 14005KT 18/17 A2994 RMK A01 T01820171  RH  098%=      5-min Rain = 0
KNOR 251055Z 14004KT 18/17 A2994 RMK A01 T01820171  RH  098%=      5-min Rain = 0
KNOR 251100Z 14004KT 18/17 A2995 RMK A01 T01820171  RH  098%=      5-min Rain = 0
KNOR 251105Z 15004KT 18/17 A2995 RMK A01 T01820171  RH  098%=      5-min Rain = 0
KNOR 251110Z 15003KT 18/17 A2995 RMK A01 T01820171  RH  098%=      5-min Rain = 0
KNOR 251115Z 15003KT 18/17 A2995 RMK A01 T01820171  RH  098%=      5-min Rain = 0
KNOR 251120Z 15003KT 18/17 A2995 RMK A01 T01810171  RH  098%=      5-min Rain = 0
KNOR 251125Z 15004KT 18/17 A2995 RMK A01 T01810171  RH  098%=      5-min Rain = 0
KNOR 251130Z 14004KT 18/17 A2995 RMK A01 T01810171  RH  098%=      5-min Rain = 0
KNOR 251135Z 13004KT 18/17 A2995 RMK A01 T01820171  RH  098%=      5-min Rain = 0
KNOR 251140Z 13004KT 18/17 A2995 RMK A01 T01820172  RH  098%=      5-min Rain = 0
KNOR 251145Z 13003KT 18/17 A2995 RMK A01 T01830172  RH  098%=      5-min Rain = 0
KNOR 251150Z 14003KT 18/17 A2996 RMK A01 T01840173  RH  098%=      5-min Rain = 0
KNOR 251155Z 14003KT 18/17 A2996 RMK A01 T01840174  RH  098%=      5-min Rain = 0
KNOR 251200Z 14004KT 19/17 A2996 RMK A01 T01850174  RH  098%=      5-min Rain = 0
KNOR 251205Z 13005KT 19/18 A2996 RMK A01 T01860176  RH  098%=      5-min Rain = 0
KNOR 251210Z 14005KT 19/18 A2996 RMK A01 T01880177  RH  098%=      5-min Rain = 0
KNOR 251215Z 14006KT 19/18 A2996 RMK A01 T01890178  RH  098%=      5-min Rain = 0
KNOR 251220Z 14006KT 19/18 A2996 RMK A01 T01900179  RH  098%=      5-min Rain = 0
KNOR 251225Z 14005KT 19/18 A2997 RMK A01 T01910180  RH  098%=      5-min Rain = 0
KNOR 251230Z 14005KT 19/18 A2997 RMK A01 T01930182  RH  098%=      5-min Rain = 0
KNOR 251235Z 14006KT 19/18 A2997 RMK A01 T01940183  RH  098%=      5-min Rain = 0
KNOR 251240Z 13006KT 20/18 A2997 RMK A01 T01960184  RH  098%=      5-min Rain = 0
KNOR 251245Z 14007G12KT 20/19 A2997 RMK A01 T01980185  RH  097%=      5-min Rain = 0
KNOR 251250Z 14007KT 20/19 A2998 RMK A01 T01980185  RH  097%=      5-min Rain = 0
KNOR 251255Z 14007KT 20/18 A2998 RMK A01 T01980184  RH  097%=      5-min Rain = 0
KNOR 251300Z 14007KT 20/18 A2998 RMK A01 T01980184  RH  097%=      5-min Rain = 0
KNOR 251305Z 14008KT 20/18 A2998 RMK A01 T01990184  RH  096%=      5-min Rain = 0
KNOR 251310Z 14008KT 20/19 A2998 RMK A01 T01990185  RH  096%=      5-min Rain = 0
KNOR 251315Z 14008G13KT 20/19 A2998 RMK A01 T02000185  RH  096%=      5-min Rain = 0
KNOR 251320Z 14008KT 20/19 A2998 RMK A01 T02010185  RH  096%=      5-min Rain = 0
KNOR 251325Z 14008KT 20/19 A2999 RMK A01 T02010185  RH  096%=      5-min Rain = 0
KNOR 251330Z 14008KT 20/19 A2999 RMK A01 T02020186  RH  096%=      5-min Rain = 0
KNOR 251335Z 14008KT 20/19 A2999 RMK A01 T02030186  RH  095%=      5-min Rain = 0
KNOR 251340Z 14007KT 20/19 A2999 RMK A01 T02040187  RH  095%=      5-min Rain = 0
KNOR 251345Z 14008KT 21/19 A2999 RMK A01 T02050188  RH  095%=      5-min Rain = 0
KNOR 251350Z 15009KT 21/19 A2999 RMK A01 T02060189  RH  095%=      5-min Rain = 0
KNOR 251355Z 15010KT 21/19 A2999 RMK A01 T02080189  RH  094%=      5-min Rain = 0
KNOR 251400Z 15010KT 21/19 A2999 RMK A01 T02090190  RH  094%=      5-min Rain = 0
KNOR 251405Z 16009KT 21/19 A2999 RMK A01 T02110191  RH  093%=      5-min Rain = 0
KNOR 251410Z 16010KT 21/19 A2999 RMK A01 T02120191  RH  093%=      5-min Rain = 0
KNOR 251415Z 15011KT 21/19 A2999 RMK A01 T02120191  RH  093%=      5-min Rain = 0
KNOR 251420Z 16010KT 21/19 A30 RMK A01 T02120192  RH  093%=      5-min Rain = 0
KNOR 251425Z 17011KT 21/19 A30 RMK A01 T02140193  RH  093%=      5-min Rain = 0
KNOR 251430Z 17013KT 22/19 A2999 RMK A01 T02150193  RH  092%=      5-min Rain = 0
KNOR 251435Z 17012KT 22/19 A30 RMK A01 T02190194  RH  091%=      5-min Rain = 0
KNOR 251440Z 17013KT 22/19 A30 RMK A01 T02200194  RH  090%=      5-min Rain = 0
KNOR 251445Z 17010KT 22/19 A30 RMK A01 T02210194  RH  090%=      5-min Rain = 0
KNOR 251450Z 16012KT 22/20 A30 RMK A01 T02230195  RH  089%=      5-min Rain = 0
KNOR 251455Z 16012KT 23/20 A30 RMK A01 T02270196  RH  088%=      5-min Rain = 0
KNOR 251500Z 16012G17KT 23/20 A30 RMK A01 T02280196  RH  087%=      5-min Rain = 0
KNOR 251505Z 16012G17KT 23/20 A30 RMK A01 T02300197  RH  087%=      5-min Rain = 0
KNOR 251510Z 17011KT 23/20 A30 RMK A01 T02300197  RH  086%=      5-min Rain = 0
KNOR 251515Z 16014KT 23/20 A30 RMK A01 T02290195  RH  086%=      5-min Rain = 0
KNOR 251520Z 17014G19KT 23/20 A30 RMK A01 T02300195  RH  085%=      5-min Rain = 0
KNOR 251525Z 16014G19KT 23/20 A30 RMK A01 T02300195  RH  086%=      5-min Rain = 0
KNOR 251530Z 16015G20KT 23/20 A30 RMK A01 T02340196  RH  084%=      5-min Rain = 0
KNOR 251535Z 17015KT 24/20 A30 RMK A01 T02360197  RH  083%=      5-min Rain = 0
KNOR 251540Z 17014KT 24/20 A30 RMK A01 T02400198  RH  082%=      5-min Rain = 0
KNOR 251545Z 18014G20KT 24/20 A30 RMK A01 T02430198  RH  081%=      5-min Rain = 0
KNOR 251550Z 17012G17KT 24/20 A30 RMK A01 T02430199  RH  081%=      5-min Rain = 0
KNOR 251555Z 17011KT 24/20 A30 RMK A01 T02420198  RH  081%=      5-min Rain = 0
KNOR 251600Z 16014G19KT 24/20 A30 RMK A01 T02420197  RH  080%=      5-min Rain = 0
KNOR 251605Z 17012G17KT 24/20 A30 RMK A01 T02410196  RH  080%=      5-min Rain = 0
KNOR 251610Z 16011KT 24/20 A30 RMK A01 T02430196  RH  080%=      5-min Rain = 0
KNOR 251615Z 17011KT 24/20 A30 RMK A01 T02420196  RH  080%=      5-min Rain = 0
KNOR 251620Z 16012KT 24/20 A30 RMK A01 T02410195  RH  080%=      5-min Rain = 0
KNOR 251625Z 16011KT 24/20 A30 RMK A01 T02440196  RH  079%=      5-min Rain = 0
KNOR 251630Z 17013KT 25/20 A30 RMK A01 T02480196  RH  077%=      5-min Rain = 0
KNOR 251635Z 16013G19KT 25/20 A30 RMK A01 T02500198  RH  077%=      5-min Rain = 0
KNOR 251640Z 16013G18KT 26/20 A2999 RMK A01 T02550199  RH  075%=      5-min Rain = 0
KNOR 251645Z 17013KT 26/20 A2999 RMK A01 T02560198  RH  074%=      5-min Rain = 0
KNOR 251650Z 17015G20KT 25/20 A30 RMK A01 T02500196  RH  076%=      5-min Rain = 0
KNOR 251655Z 17015KT 25/20 A2999 RMK A01 T02490196  RH  076%=      5-min Rain = 0
KNOR 251700Z 16013KT 25/20 A30 RMK A01 T02500197  RH  077%=      5-min Rain = 0
KNOR 251705Z 16012KT 25/20 A30 RMK A01 T02500197  RH  076%=      5-min Rain = 0
KNOR 251710Z 17012KT 25/20 A30 RMK A01 T02480196  RH  077%=      5-min Rain = 0
KNOR 251715Z 17013KT 25/20 A30 RMK A01 T02480195  RH  077%=      5-min Rain = 0
KNOR 251720Z 17011KT 25/20 A30 RMK A01 T02470196  RH  077%=      5-min Rain = 0
KNOR 251725Z 16010KT 25/20 A30 RMK A01 T02450196  RH  079%=      5-min Rain = 0
KNOR 251730Z 16010KT 24/20 A30 RMK A01 T02430197  RH  080%=      5-min Rain = 0
KNOR 251735Z 16009KT 24/20 A2999 RMK A01 T02430197  RH  080%=      5-min Rain = 0
KNOR 251740Z 16008G13KT 25/20 A2999 RMK A01 T02470199  RH  079%=      5-min Rain = 0
KNOR 251745Z 16010G15KT 25/20 A2999 RMK A01 T02480198  RH  078%=      5-min Rain = 0
KNOR 251750Z 16010KT 25/20 A2999 RMK A01 T02500200  RH  078%=      5-min Rain = 0
KNOR 251755Z 17012KT 26/20 A2998 RMK A01 T02560200  RH  075%=      5-min Rain = 0
KNOR 251800Z 17010KT 26/20 A2998 RMK A01 T02590201  RH  075%=      5-min Rain = 0
KNOR 251805Z 16012KT 26/20 A2998 RMK A01 T02580200  RH  074%=      5-min Rain = 0
KNOR 251810Z 16012G17KT 26/20 A2997 RMK A01 T02610201  RH  074%=      5-min Rain = 0
KNOR 251815Z 16013KT 26/20 A2997 RMK A01 T02610200  RH  073%=      5-min Rain = 0
KNOR 251820Z 17012KT 26/20 A2997 RMK A01 T02590199  RH  074%=      5-min Rain = 0
KNOR 251825Z 17012KT 26/20 A2997 RMK A01 T02570199  RH  075%=      5-min Rain = 0.01
KNOR 251830Z 16012KT 26/20 A2997 RMK A01 T02590200  RH  074%=      5-min Rain = 0
KNOR 251835Z 16011KT 26/20 A2997 RMK A01 T02560200  RH  075%=      5-min Rain = 0
KNOR 251840Z 16011KT 25/20 A2997 RMK A01 T02520199  RH  077%=      5-min Rain = 0
KNOR 251845Z 17009KT 25/20 A2997 RMK A01 T02490202  RH  080%=      5-min Rain = 0
KNOR 251850Z 16009KT 25/20 A2997 RMK A01 T02530204  RH  079%=      5-min Rain = 0
KNOR 251855Z 16007G12KT 25/20 A2996 RMK A01 T02540203  RH  078%=      5-min Rain = 0
KNOR 251900Z 16008KT 26/20 A2996 RMK A01 T02550202  RH  077%=      5-min Rain = 0
KNOR 251905Z 16009KT 26/20 A2996 RMK A01 T02560202  RH  077%=      5-min Rain = 0
KNOR 251910Z 16009KT 26/20 A2996 RMK A01 T02570201  RH  075%=      5-min Rain = 0
KNOR 251915Z 18008KT 26/20 A2996 RMK A01 T02590202  RH  075%=      5-min Rain = 0
KNOR 251920Z 18008KT 26/20 A2995 RMK A01 T02570201  RH  075%=      5-min Rain = 0
KNOR 251925Z 17008KT 26/20 A2995 RMK A01 T02550201  RH  077%=      5-min Rain = 0
KNOR 251930Z 18007KT 25/20 A2995 RMK A01 T02470204  RH  082%=      5-min Rain = 0.01
KNOR 251935Z 18005KT 24/21 A2994 RMK A01 T02440209  RH  086%=      5-min Rain = 0.01
KNOR 251940Z 17005KT 25/21 A2994 RMK A01 T02480214  RH  087%=      5-min Rain = 0
KNOR 251945Z 18005KT 25/21 A2994 RMK A01 T02510213  RH  084%=      5-min Rain = 0
KNOR 251950Z 18005KT 25/21 A2993 RMK A01 T02530211  RH  083%=      5-min Rain = 0
KNOR 251955Z 17005KT 25/21 A2993 RMK A01 T02530210  RH  082%=      5-min Rain = 0
KNOR 252000Z 19005KT 25/21 A2993 RMK A01 T02510210  RH  083%=      5-min Rain = 0
KNOR 252005Z 18006KT 25/21 A2993 RMK A01 T02510209  RH  083%=      5-min Rain = 0
KNOR 252010Z 18007KT 25/21 A2993 RMK A01 T02510209  RH  082%=      5-min Rain = 0
KNOR 252015Z 17010KT 25/21 A2993 RMK A01 T02530208  RH  081%=      5-min Rain = 0
KNOR 252020Z 17011KT 25/21 A2992 RMK A01 T02540205  RH  079%=      5-min Rain = 0
KNOR 252025Z 17011KT 25/20 A2991 RMK A01 T02540204  RH  078%=      5-min Rain = 0
KNOR 252030Z 17013KT 25/20 A2991 RMK A01 T02530201  RH  077%=      5-min Rain = 0
KNOR 252035Z 17011KT 25/20 A2992 RMK A01 T02520200  RH  077%=      5-min Rain = 0
KNOR 252040Z 17010KT 25/20 A2992 RMK A01 T02510200  RH  078%=      5-min Rain = 0
KNOR 252045Z 17009G14KT 25/20 A2992 RMK A01 T02510201  RH  078%=      5-min Rain = 0
KNOR 252050Z 17009G14KT 25/20 A2992 RMK A01 T02510202  RH  079%=      5-min Rain = 0
KNOR 252055Z 17011KT 25/20 A2992 RMK A01 T02520200  RH  077%=      5-min Rain = 0
KNOR 252100Z 17010KT 25/20 A2992 RMK A01 T02530200  RH  077%=      5-min Rain = 0
KNOR 252105Z 16009KT 25/20 A2991 RMK A01 T02530201  RH  077%=      5-min Rain = 0
KNOR 252110Z 16009KT 25/20 A2992 RMK A01 T02540202  RH  077%=      5-min Rain = 0
KNOR 252115Z 17009KT 26/20 A2992 RMK A01 T02550203  RH  078%=      5-min Rain = 0
KNOR 252120Z 17010KT 26/20 A2991 RMK A01 T02560203  RH  077%=      5-min Rain = 0
KNOR 252125Z 17011KT 26/20 A2991 RMK A01 T02570202  RH  076%=      5-min Rain = 0
KNOR 252130Z 17011KT 26/20 A299 RMK A01 T02580202  RH  075%=      5-min Rain = 0
KNOR 252135Z 17012KT 26/20 A299 RMK A01 T02620203  RH  074%=      5-min Rain = 0
KNOR 252140Z 17013G18KT 27/20 A299 RMK A01 T02660202  RH  072%=      5-min Rain = 0
KNOR 252145Z 18012KT 27/20 A299 RMK A01 T02680201  RH  071%=      5-min Rain = 0
KNOR 252150Z 17011KT 27/20 A2989 RMK A01 T02670202  RH  072%=      5-min Rain = 0
KNOR 252155Z 17012KT 27/20 A2989 RMK A01 T02680202  RH  071%=      5-min Rain = 0
KNOR 252200Z 17013G18KT 27/20 A2989 RMK A01 T02700203  RH  071%=      5-min Rain = 0
KNOR 252205Z 17015G21KT 27/20 A2989 RMK A01 T02720201  RH  069%=      5-min Rain = 0
KNOR 252210Z 18014G21KT 27/20 A2989 RMK A01 T02720199  RH  068%=      5-min Rain = 0
KNOR 252215Z 17016G21KT 27/20 A2988 RMK A01 T02710198  RH  068%=      5-min Rain = 0
KNOR 252220Z 17015KT 27/20 A2988 RMK A01 T02710198  RH  068%=      5-min Rain = 0
KNOR 252225Z 17015G21KT 27/20 A2988 RMK A01 T02700199  RH  069%=      5-min Rain = 0
KNOR 252230Z 18014G21KT 27/20 A2988 RMK A01 T02690200  RH  070%=      5-min Rain = 0
KNOR 252235Z 18015G20KT 27/20 A2989 RMK A01 T02690199  RH  069%=      5-min Rain = 0
KNOR 252240Z 18016G21KT 27/20 A2989 RMK A01 T02680196  RH  068%=      5-min Rain = 0
KNOR 252245Z 17014G20KT 27/20 A2988 RMK A01 T02660195  RH  069%=      5-min Rain = 0
KNOR 252250Z 18014G19KT 26/19 A2987 RMK A01 T02640194  RH  069%=      5-min Rain = 0
KNOR 252255Z 17013G18KT 26/19 A2986 RMK A01 T02630194  RH  070%=      5-min Rain = 0
KNOR 252300Z 17010G16KT 26/20 A2987 RMK A01 T02620195  RH  070%=      5-min Rain = 0
KNOR 252305Z 18009G14KT 26/20 A2988 RMK A01 T02590195  RH  072%=      5-min Rain = 0
KNOR 252310Z 17011G17KT 26/19 A2989 RMK A01 T02610194  RH  070%=      5-min Rain = 0
KNOR 252315Z 16010KT 26/19 A2989 RMK A01 T02600194  RH  071%=      5-min Rain = 0
KNOR 252320Z 17010KT 26/19 A299 RMK A01 T02580194  RH  072%=      5-min Rain = 0
KNOR 252325Z 17011KT 26/20 A2989 RMK A01 T02560195  RH  073%=      5-min Rain = 0
KNOR 252330Z 17009KT 26/20 A2989 RMK A01 T02550196  RH  074%=      5-min Rain = 0
KNOR 252335Z 16007KT 26/20 A2988 RMK A01 T02550197  RH  074%=      5-min Rain = 0
KNOR 252340Z 15007KT 25/20 A2987 RMK A01 T02530197  RH  075%=      5-min Rain = 0
KNOR 252345Z 16008KT 25/20 A2988 RMK A01 T02520198  RH  076%=      5-min Rain = 0
KNOR 252350Z 16006KT 25/20 A2989 RMK A01 T02510198  RH  077%=      5-min Rain = 0
KNOR 252355Z 16006KT 25/20 A2989 RMK A01 T02510198  RH  077%=      5-min Rain = 0
KNOR 260000Z 16007KT 25/20 A2989 RMK A01 T02490199  RH  078%=      5-min Rain = 0
KNOR 260005Z 16007KT 25/20 A2989 RMK A01 T02470199  RH  079%=      5-min Rain = 0
KNOR 260010Z 17007KT 25/20 A2989 RMK A01 T02480199  RH  079%=      5-min Rain = 0
KNOR 260015Z 18005KT 25/20 A2989 RMK A01 T02510199  RH  077%=      5-min Rain = 0
KNOR 260020Z 17006KT 25/20 A2989 RMK A01 T02510199  RH  077%=      5-min Rain = 0
KNOR 260025Z 17006KT 25/20 A2989 RMK A01 T02500199  RH  078%=      5-min Rain = 0
KNOR 260030Z 16004KT 25/20 A2989 RMK A01 T02490199  RH  078%=      5-min Rain = 0
KNOR 260035Z 16003KT 25/20 A2989 RMK A01 T02470199  RH  079%=      5-min Rain = 0
KNOR 260040Z 22001KT 25/20 A299 RMK A01 T02450199  RH  080%=      5-min Rain = 0
KNOR 260045Z 28003KT 24/20 A2991 RMK A01 T02420199  RH  082%=      5-min Rain = 0
KNOR 260050Z 30005KT 24/20 A2992 RMK A01 T02410200  RH  083%=      5-min Rain = 0
KNOR 260055Z 30006KT 24/20 A2993 RMK A01 T02400201  RH  084%=      5-min Rain = 0
KNOR 260100Z 31006KT 24/20 A2993 RMK A01 T02420201  RH  083%=      5-min Rain = 0
KNOR 260105Z 30006KT 24/20 A2993 RMK A01 T02430202  RH  083%=      5-min Rain = 0
KNOR 260110Z 30011G18KT 24/19 A2994 RMK A01 T02400189  RH  078%=      5-min Rain = 0
KNOR 260115Z 30012G18KT 23/16 A2994 RMK A01 T02310163  RH  068%=      5-min Rain = 0
KNOR 260120Z 30009KT 23/16 A2993 RMK A01 T02280158  RH  068%=      5-min Rain = 0
KNOR 260125Z 33009KT 23/16 A2992 RMK A01 T02250159  RH  069%=      5-min Rain = 0
KNOR 260130Z 32008KT 22/16 A2992 RMK A01 T02240158  RH  069%=      5-min Rain = 0
KNOR 260135Z 31006KT 22/16 A2992 RMK A01 T02220158  RH  070%=      5-min Rain = 0
KNOR 260140Z 31005KT 22/16 A2991 RMK A01 T02190159  RH  072%=      5-min Rain = 0
KNOR 260145Z 33004KT 22/16 A2991 RMK A01 T02170156  RH  072%=      5-min Rain = 0
KNOR 260150Z 34001KT 22/15 A299 RMK A01 T02150154  RH  071%=      5-min Rain = 0
KNOR 260155Z 34000KT 21/15 A299 RMK A01 T02140153  RH  071%=      5-min Rain = 0
KNOR 260200Z 00000KT 21/16 A299 RMK A01 T02120155  RH  073%=      5-min Rain = 0
KNOR 260205Z 11002KT 21/15 A299 RMK A01 T02110153  RH  073%=      5-min Rain = 0
KNOR 260210Z 10003KT 21/16 A299 RMK A01 T02060155  RH  076%=      5-min Rain = 0
KNOR 260215Z 12003KT 21/15 A299 RMK A01 T02050154  RH  076%=      5-min Rain = 0
KNOR 260220Z 13004KT 21/15 A299 RMK A01 T02060154  RH  076%=      5-min Rain = 0
KNOR 260225Z 14005KT 21/16 A299 RMK A01 T02050156  RH  077%=      5-min Rain = 0
KNOR 260230Z 14005KT 20/16 A299 RMK A01 T02020157  RH  079%=      5-min Rain = 0
KNOR 260235Z 15004KT 20/16 A299 RMK A01 T02010159  RH  081%=      5-min Rain = 0
KNOR 260240Z 15002KT 20/16 A299 RMK A01 T01990159  RH  081%=      5-min Rain = 0
KNOR 260245Z 12001KT 20/16 A299 RMK A01 T01990159  RH  081%=      5-min Rain = 0
KNOR 260250Z 08001KT 20/16 A299 RMK A01 T02010158  RH  080%=      5-min Rain = 0
KNOR 260255Z 11002KT 20/16 A299 RMK A01 T02020157  RH  079%=      5-min Rain = 0
KNOR 260300Z 12003KT 21/16 A299 RMK A01 T02050156  RH  077%=      5-min Rain = 0
KNOR 260305Z 13004KT 20/16 A2991 RMK A01 T02040158  RH  078%=      5-min Rain = 0
KNOR 260310Z 13005KT 20/16 A2991 RMK A01 T02020159  RH  080%=      5-min Rain = 0
KNOR 260315Z 13006KT 20/16 A2991 RMK A01 T02000159  RH  081%=      5-min Rain = 0
KNOR 260320Z 12006KT 20/16 A2991 RMK A01 T01990160  RH  082%=      5-min Rain = 0
KNOR 260325Z 12007KT 20/16 A2991 RMK A01 T02030159  RH  079%=      5-min Rain = 0
KNOR 260330Z 12007KT 21/16 A2991 RMK A01 T02060160  RH  079%=      5-min Rain = 0
KNOR 260335Z 12007KT 21/16 A2991 RMK A01 T02080163  RH  079%=      5-min Rain = 0
KNOR 260340Z 12008KT 21/17 A2991 RMK A01 T02080167  RH  081%=      5-min Rain = 0
KNOR 260345Z 12007KT 21/17 A2992 RMK A01 T02100173  RH  083%=      5-min Rain = 0
KNOR 260350Z 12007KT 21/18 A2992 RMK A01 T02110177  RH  085%=      5-min Rain = 0
KNOR 260355Z 09006KT 21/18 A2992 RMK A01 T02080175  RH  086%=      5-min Rain = 0
KNOR 260400Z 07007KT 20/17 A2992 RMK A01 T02020167  RH  084%=      5-min Rain = 0
KNOR 260405Z 06008KT 20/16 A2992 RMK A01 T01990163  RH  084%=      5-min Rain = 0
KNOR 260410Z 06008KT 20/16 A2993 RMK A01 T01980163  RH  084%=      5-min Rain = 0
KNOR 260415Z 08007KT 20/17 A2993 RMK A01 T02000166  RH  085%=      5-min Rain = 0
KNOR 260420Z 08008KT 20/17 A2992 RMK A01 T02030169  RH  085%=      5-min Rain = 0
KNOR 260425Z 08008KT 20/17 A2992 RMK A01 T02030170  RH  086%=      5-min Rain = 0
KNOR 260430Z 08008KT 20/17 A2992 RMK A01 T02040172  RH  086%=      5-min Rain = 0
KNOR 260435Z 08008KT 20/17 A2992 RMK A01 T02040174  RH  087%=      5-min Rain = 0
KNOR 260440Z 08007KT 20/17 A2992 RMK A01 T02040174  RH  087%=      5-min Rain = 0
KNOR 260445Z 08008KT 20/18 A2992 RMK A01 T02030175  RH  088%=      5-min Rain = 0
KNOR 260450Z 08007KT 20/18 A2992 RMK A01 T02040175  RH  088%=      5-min Rain = 0
KNOR 260455Z 09007KT 20/18 A2992 RMK A01 T02040176  RH  088%=      5-min Rain = 0

Page generated in 0.0093 seconds.